sensor_id;sensor_type;location;lat;lon;timestamp;pressure;altitude;pressure_sealevel;temperature;humidity
3250;BME280;1637;42.020;23.992;2023-04-27T00:00:27;92264.41;;;7.65;95.09
3250;BME280;1637;42.020;23.992;2023-04-27T00:02:54;92269.19;;;7.81;93.63
3250;BME280;1637;42.020;23.992;2023-04-27T00:05:21;92264.22;;;7.83;93.78
3250;BME280;1637;42.020;23.992;2023-04-27T00:07:49;92276.78;;;7.82;94.02
3250;BME280;1637;42.020;23.992;2023-04-27T00:10:16;92279.81;;;7.84;95.66
3250;BME280;1637;42.020;23.992;2023-04-27T00:12:43;92278.72;;;7.78;95.39
3250;BME280;1637;42.020;23.992;2023-04-27T00:15:10;92275.41;;;7.67;94.03
3250;BME280;1637;42.020;23.992;2023-04-27T00:17:37;92267.91;;;7.51;96.55
3250;BME280;1637;42.020;23.992;2023-04-27T00:20:04;92274.94;;;7.31;100.00
3250;BME280;1637;42.020;23.992;2023-04-27T00:22:33;92265.16;;;7.14;100.00
3250;BME280;1637;42.020;23.992;2023-04-27T00:25:02;92269.44;;;7.04;100.00
3250;BME280;1637;42.020;23.992;2023-04-27T00:27:29;92273.06;;;7.28;100.00
3250;BME280;1637;42.020;23.992;2023-04-27T00:29:56;92266.16;;;7.34;100.00
3250;BME280;1637;42.020;23.992;2023-04-27T00:32:23;92270.22;;;7.49;100.00
3250;BME280;1637;42.020;23.992;2023-04-27T00:34:50;92283.81;;;7.66;97.08
3250;BME280;1637;42.020;23.992;2023-04-27T00:37:18;92272.78;;;7.64;94.63
3250;BME280;1637;42.020;23.992;2023-04-27T00:39:45;92275.56;;;7.49;96.54
3250;BME280;1637;42.020;23.992;2023-04-27T00:42:13;92282.22;;;7.72;93.12
3250;BME280;1637;42.020;23.992;2023-04-27T00:44:43;92273.56;;;7.61;93.18
3250;BME280;1637;42.020;23.992;2023-04-27T00:47:10;92279.66;;;7.61;93.63
3250;BME280;1637;42.020;23.992;2023-04-27T00:49:38;92272.84;;;7.56;92.92
3250;BME280;1637;42.020;23.992;2023-04-27T00:52:05;92273.63;;;7.50;93.96
3250;BME280;1637;42.020;23.992;2023-04-27T00:54:32;92282.84;;;7.86;93.49
3250;BME280;1637;42.020;23.992;2023-04-27T00:56:59;92287.13;;;7.77;93.36
3250;BME280;1637;42.020;23.992;2023-04-27T00:59:28;92293.34;;;7.63;94.47
3250;BME280;1637;42.020;23.992;2023-04-27T01:01:55;92297.38;;;7.82;92.68
3250;BME280;1637;42.020;23.992;2023-04-27T01:04:22;92295.41;;;7.89;91.04
3250;BME280;1637;42.020;23.992;2023-04-27T01:06:49;92293.38;;;7.59;92.92
3250;BME280;1637;42.020;23.992;2023-04-27T01:09:16;92297.06;;;7.73;92.10
3250;BME280;1637;42.020;23.992;2023-04-27T01:11:44;92302.75;;;7.75;93.00
3250;BME280;1637;42.020;23.992;2023-04-27T01:14:11;92298.16;;;7.79;94.41
3250;BME280;1637;42.020;23.992;2023-04-27T01:16:39;92306.97;;;7.72;95.57
3250;BME280;1637;42.020;23.992;2023-04-27T01:19:06;92305.31;;;7.44;100.00
3250;BME280;1637;42.020;23.992;2023-04-27T01:21:33;92295.16;;;7.25;100.00
3250;BME280;1637;42.020;23.992;2023-04-27T01:24:03;92290.78;;;6.97;100.00
3250;BME280;1637;42.020;23.992;2023-04-27T01:26:30;92295.25;;;7.07;98.41
3250;BME280;1637;42.020;23.992;2023-04-27T01:28:57;92298.19;;;7.27;98.21
3250;BME280;1637;42.020;23.992;2023-04-27T01:31:24;92293.53;;;7.38;95.66
3250;BME280;1637;42.020;23.992;2023-04-27T01:33:51;92297.31;;;7.41;95.38
3250;BME280;1637;42.020;23.992;2023-04-27T01:36:17;92298.50;;;7.36;95.65
3250;BME280;1637;42.020;23.992;2023-04-27T01:38:44;92307.69;;;7.76;92.09
3250;BME280;1637;42.020;23.992;2023-04-27T01:41:12;92295.63;;;7.65;92.09
3250;BME280;1637;42.020;23.992;2023-04-27T01:43:39;92301.88;;;7.44;93.06
3250;BME280;1637;42.020;23.992;2023-04-27T01:46:07;92306.47;;;7.40;93.24
3250;BME280;1637;42.020;23.992;2023-04-27T01:48:35;92305.59;;;7.53;86.00
3250;BME280;1637;42.020;23.992;2023-04-27T01:51:02;92310.00;;;7.71;77.61
3250;BME280;1637;42.020;23.992;2023-04-27T01:53:29;92307.16;;;7.92;76.81
3250;BME280;1637;42.020;23.992;2023-04-27T01:55:56;92310.16;;;7.98;75.93
3250;BME280;1637;42.020;23.992;2023-04-27T01:58:25;92310.16;;;7.98;80.19
3250;BME280;1637;42.020;23.992;2023-04-27T02:00:52;92310.47;;;7.66;84.14
3250;BME280;1637;42.020;23.992;2023-04-27T02:03:19;92312.84;;;7.49;90.29
3250;BME280;1637;42.020;23.992;2023-04-27T02:05:45;92299.34;;;7.26;91.85
3250;BME280;1637;42.020;23.992;2023-04-27T02:08:12;92307.50;;;7.53;86.71
3250;BME280;1637;42.020;23.992;2023-04-27T02:10:39;92309.69;;;7.65;81.06
3250;BME280;1637;42.020;23.992;2023-04-27T02:13:06;92309.22;;;7.74;82.33
3250;BME280;1637;42.020;23.992;2023-04-27T02:15:35;92306.56;;;7.74;84.00
3250;BME280;1637;42.020;23.992;2023-04-27T02:18:02;92307.72;;;7.73;76.26
3250;BME280;1637;42.020;23.992;2023-04-27T02:20:29;92307.44;;;8.05;75.66
3250;BME280;1637;42.020;23.992;2023-04-27T02:22:56;92296.59;;;7.81;78.79
3250;BME280;1637;42.020;23.992;2023-04-27T02:25:23;92305.78;;;7.77;80.04
3250;BME280;1637;42.020;23.992;2023-04-27T02:27:50;92315.59;;;7.87;77.03
3250;BME280;1637;42.020;23.992;2023-04-27T02:30:17;92301.53;;;7.83;80.31
3250;BME280;1637;42.020;23.992;2023-04-27T02:32:45;92309.69;;;7.65;77.65
3250;BME280;1637;42.020;23.992;2023-04-27T02:35:12;92302.66;;;7.85;76.97
3250;BME280;1637;42.020;23.992;2023-04-27T02:37:39;92293.69;;;7.69;76.26
3250;BME280;1637;42.020;23.992;2023-04-27T02:40:07;92320.88;;;7.90;75.68
3250;BME280;1637;42.020;23.992;2023-04-27T02:42:34;92317.47;;;7.90;76.37
3250;BME280;1637;42.020;23.992;2023-04-27T02:45:04;92327.03;;;7.87;76.29
3250;BME280;1637;42.020;23.992;2023-04-27T02:47:31;92324.72;;;7.89;75.15
3250;BME280;1637;42.020;23.992;2023-04-27T02:49:59;92324.75;;;7.86;75.35
3250;BME280;1637;42.020;23.992;2023-04-27T02:52:26;92332.69;;;7.93;73.02
3250;BME280;1637;42.020;23.992;2023-04-27T02:54:53;92328.47;;;7.96;74.34
3250;BME280;1637;42.020;23.992;2023-04-27T02:57:20;92331.47;;;8.01;74.27
3250;BME280;1637;42.020;23.992;2023-04-27T02:59:47;92334.53;;;8.00;72.77
3250;BME280;1637;42.020;23.992;2023-04-27T03:02:13;92312.94;;;7.87;78.04
3250;BME280;1637;42.020;23.992;2023-04-27T03:04:40;92338.59;;;8.11;78.77
3250;BME280;1637;42.020;23.992;2023-04-27T03:07:09;92337.34;;;8.23;76.63
3250;BME280;1637;42.020;23.992;2023-04-27T03:09:36;92339.03;;;8.10;80.16
3250;BME280;1637;42.020;23.992;2023-04-27T03:12:03;92324.41;;;7.80;78.93
3250;BME280;1637;42.020;23.992;2023-04-27T03:14:30;92343.22;;;8.07;73.04
3250;BME280;1637;42.020;23.992;2023-04-27T03:16:57;92344.38;;;8.06;71.23
3250;BME280;1637;42.020;23.992;2023-04-27T03:19:24;92345.00;;;8.21;72.88
3250;BME280;1637;42.020;23.992;2023-04-27T03:21:50;92341.06;;;7.91;73.15
3250;BME280;1637;42.020;23.992;2023-04-27T03:24:19;92351.59;;;8.09;77.58
3250;BME280;1637;42.020;23.992;2023-04-27T03:26:46;92341.38;;;8.01;80.75
3250;BME280;1637;42.020;23.992;2023-04-27T03:29:12;92347.16;;;7.92;82.85
3250;BME280;1637;42.020;23.992;2023-04-27T03:31:39;92329.16;;;7.58;85.20
3250;BME280;1637;42.020;23.992;2023-04-27T03:34:06;92356.19;;;7.61;83.87
3250;BME280;1637;42.020;23.992;2023-04-27T03:36:33;92345.97;;;7.48;86.36
3250;BME280;1637;42.020;23.992;2023-04-27T03:39:00;92349.53;;;7.28;88.15
3250;BME280;1637;42.020;23.992;2023-04-27T03:41:28;92351.78;;;7.36;85.93
3250;BME280;1637;42.020;23.992;2023-04-27T03:43:55;92346.03;;;7.45;85.68
3250;BME280;1637;42.020;23.992;2023-04-27T03:46:22;92353.53;;;7.57;85.16
3250;BME280;1637;42.020;23.992;2023-04-27T03:48:48;92345.63;;;7.46;86.76
3250;BME280;1637;42.020;23.992;2023-04-27T03:51:15;92358.59;;;7.44;89.55
3250;BME280;1637;42.020;23.992;2023-04-27T03:53:42;92355.16;;;7.44;83.64
3250;BME280;1637;42.020;23.992;2023-04-27T03:56:09;92359.59;;;7.65;79.88
3250;BME280;1637;42.020;23.992;2023-04-27T03:58:37;92367.63;;;7.57;82.31
3250;BME280;1637;42.020;23.992;2023-04-27T04:01:04;92372.94;;;7.61;83.69
3250;BME280;1637;42.020;23.992;2023-04-27T04:03:34;92376.00;;;7.56;84.70
3250;BME280;1637;42.020;23.992;2023-04-27T04:06:01;92380.66;;;7.45;87.24
3250;BME280;1637;42.020;23.992;2023-04-27T04:08:29;92373.84;;;7.40;83.13
3250;BME280;1637;42.020;23.992;2023-04-27T04:10:57;92379.94;;;7.37;80.47
3250;BME280;1637;42.020;23.992;2023-04-27T04:13:24;92382.72;;;7.75;81.60
3250;BME280;1637;42.020;23.992;2023-04-27T04:16:01;92392.75;;;7.56;84.21
3250;BME280;1637;42.020;23.992;2023-04-27T04:18:27;92391.22;;;7.59;84.84
3250;BME280;1637;42.020;23.992;2023-04-27T04:20:54;92394.56;;;7.70;86.52
3250;BME280;1637;42.020;23.992;2023-04-27T04:23:21;92392.59;;;7.78;84.90
3250;BME280;1637;42.020;23.992;2023-04-27T04:25:48;92402.72;;;8.01;83.10
3250;BME280;1637;42.020;23.992;2023-04-27T04:28:15;92402.63;;;7.59;83.31
3250;BME280;1637;42.020;23.992;2023-04-27T04:30:42;92408.81;;;7.46;92.30
3250;BME280;1637;42.020;23.992;2023-04-27T04:33:11;92408.84;;;8.42;92.33
3250;BME280;1637;42.020;23.992;2023-04-27T04:35:38;92416.75;;;8.53;84.00
3250;BME280;1637;42.020;23.992;2023-04-27T04:38:06;92413.97;;;8.98;90.23
3250;BME280;1637;42.020;23.992;2023-04-27T04:40:33;92412.22;;;8.02;79.52
3250;BME280;1637;42.020;23.992;2023-04-27T04:43:01;92420.50;;;8.14;80.94
3250;BME280;1637;42.020;23.992;2023-04-27T04:45:28;92418.13;;;7.75;76.61
3250;BME280;1637;42.020;23.992;2023-04-27T04:47:55;92424.44;;;7.99;74.37
3250;BME280;1637;42.020;23.992;2023-04-27T04:50:23;92433.16;;;8.07;72.37
3250;BME280;1637;42.020;23.992;2023-04-27T04:52:50;92436.75;;;8.34;72.20
3250;BME280;1637;42.020;23.992;2023-04-27T04:55:16;92437.19;;;8.25;74.13
3250;BME280;1637;42.020;23.992;2023-04-27T04:57:43;92435.91;;;8.44;74.29
3250;BME280;1637;42.020;23.992;2023-04-27T05:00:11;92431.69;;;8.47;69.55
3250;BME280;1637;42.020;23.992;2023-04-27T05:02:38;92438.69;;;8.30;69.40
3250;BME280;1637;42.020;23.992;2023-04-27T05:05:05;92459.56;;;8.42;70.14
3250;BME280;1637;42.020;23.992;2023-04-27T05:07:34;92442.66;;;8.56;70.09
3250;BME280;1637;42.020;23.992;2023-04-27T05:10:01;92443.00;;;8.58;69.17
3250;BME280;1637;42.020;23.992;2023-04-27T05:12:28;92449.81;;;8.66;70.14
3250;BME280;1637;42.020;23.992;2023-04-27T05:14:55;92443.03;;;8.54;69.75
3250;BME280;1637;42.020;23.992;2023-04-27T05:17:22;92448.53;;;8.40;71.55
3250;BME280;1637;42.020;23.992;2023-04-27T05:19:49;92446.16;;;8.49;70.42
3250;BME280;1637;42.020;23.992;2023-04-27T05:22:15;92454.41;;;8.62;68.63
3250;BME280;1637;42.020;23.992;2023-04-27T05:24:44;92422.56;;;8.44;72.79
3250;BME280;1637;42.020;23.992;2023-04-27T05:27:11;92456.19;;;8.76;72.91
3250;BME280;1637;42.020;23.992;2023-04-27T05:29:38;92456.09;;;8.86;67.02
3250;BME280;1637;42.020;23.992;2023-04-27T05:32:05;92467.56;;;8.83;68.50
3250;BME280;1637;42.020;23.992;2023-04-27T05:34:32;92458.16;;;9.06;67.58
3250;BME280;1637;42.020;23.992;2023-04-27T05:36:59;92456.69;;;9.35;70.50
3250;BME280;1637;42.020;23.992;2023-04-27T05:39:25;92461.31;;;9.61;69.90
3250;BME280;1637;42.020;23.992;2023-04-27T05:41:54;92467.19;;;9.49;67.40
3250;BME280;1637;42.020;23.992;2023-04-27T05:44:20;92464.00;;;9.31;66.23
3250;BME280;1637;42.020;23.992;2023-04-27T05:46:49;92464.88;;;9.51;63.96
3250;BME280;1637;42.020;23.992;2023-04-27T05:49:16;92467.81;;;9.60;65.69
3250;BME280;1637;42.020;23.992;2023-04-27T05:51:43;92467.28;;;9.42;68.03
3250;BME280;1637;42.020;23.992;2023-04-27T05:54:10;92458.53;;;9.38;66.49
3250;BME280;1637;42.020;23.992;2023-04-27T05:56:36;92472.19;;;9.47;63.90
3250;BME280;1637;42.020;23.992;2023-04-27T05:59:05;92464.63;;;9.08;64.36
3250;BME280;1637;42.020;23.992;2023-04-27T06:01:31;92475.44;;;8.94;64.46
3250;BME280;1637;42.020;23.992;2023-04-27T06:03:58;92468.94;;;8.95;64.76
3250;BME280;1637;42.020;23.992;2023-04-27T06:06:25;92470.03;;;9.01;63.31
3250;BME280;1637;42.020;23.992;2023-04-27T06:08:53;92475.00;;;9.03;64.32
3250;BME280;1637;42.020;23.992;2023-04-27T06:11:20;92481.22;;;8.92;63.65
3250;BME280;1637;42.020;23.992;2023-04-27T06:13:48;92475.41;;;8.98;63.92
3250;BME280;1637;42.020;23.992;2023-04-27T06:16:16;92479.41;;;8.82;62.80
3250;BME280;1637;42.020;23.992;2023-04-27T06:18:43;92482.03;;;8.86;63.44
3250;BME280;1637;42.020;23.992;2023-04-27T06:21:09;92475.06;;;8.95;63.46
3250;BME280;1637;42.020;23.992;2023-04-27T06:23:36;92481.88;;;9.00;62.55
3250;BME280;1637;42.020;23.992;2023-04-27T06:26:03;92480.78;;;8.94;62.33
3250;BME280;1637;42.020;23.992;2023-04-27T06:28:30;92484.41;;;9.14;62.15
3250;BME280;1637;42.020;23.992;2023-04-27T06:30:57;92472.72;;;9.01;61.87
3250;BME280;1637;42.020;23.992;2023-04-27T06:33:25;92487.13;;;9.11;62.98
3250;BME280;1637;42.020;23.992;2023-04-27T06:35:52;92489.09;;;9.03;61.84
3250;BME280;1637;42.020;23.992;2023-04-27T06:38:18;92485.69;;;9.03;62.09
3250;BME280;1637;42.020;23.992;2023-04-27T06:40:49;92489.13;;;9.00;62.80
3250;BME280;1637;42.020;23.992;2023-04-27T06:43:16;92486.91;;;8.94;62.68
3250;BME280;1637;42.020;23.992;2023-04-27T06:45:43;92485.63;;;9.06;61.61
3250;BME280;1637;42.020;23.992;2023-04-27T06:48:10;92491.94;;;9.23;60.94
3250;BME280;1637;42.020;23.992;2023-04-27T06:50:38;92488.19;;;9.17;61.02
3250;BME280;1637;42.020;23.992;2023-04-27T06:53:05;92481.06;;;9.07;60.40
3250;BME280;1637;42.020;23.992;2023-04-27T06:55:32;92486.81;;;9.36;60.12
3250;BME280;1637;42.020;23.992;2023-04-27T06:57:59;92499.78;;;9.37;60.08
3250;BME280;1637;42.020;23.992;2023-04-27T07:00:26;92500.41;;;9.79;59.69
3250;BME280;1637;42.020;23.992;2023-04-27T07:02:52;92492.06;;;9.77;60.33
3250;BME280;1637;42.020;23.992;2023-04-27T07:05:19;92488.47;;;9.87;60.30
3250;BME280;1637;42.020;23.992;2023-04-27T07:07:47;92491.75;;;9.98;59.69
3250;BME280;1637;42.020;23.992;2023-04-27T07:10:14;92485.19;;;10.03;58.58
3250;BME280;1637;42.020;23.992;2023-04-27T07:12:41;92495.25;;;9.95;58.26
3250;BME280;1637;42.020;23.992;2023-04-27T07:15:09;92475.50;;;9.85;57.94
3250;BME280;1637;42.020;23.992;2023-04-27T07:17:36;92503.88;;;10.06;58.56
3250;BME280;1637;42.020;23.992;2023-04-27T07:20:04;92492.28;;;9.89;57.33
3250;BME280;1637;42.020;23.992;2023-04-27T07:22:31;92491.56;;;10.12;57.87
3250;BME280;1637;42.020;23.992;2023-04-27T07:24:59;92508.69;;;9.91;58.87
3250;BME280;1637;42.020;23.992;2023-04-27T07:27:26;92496.22;;;10.08;58.72
3250;BME280;1637;42.020;23.992;2023-04-27T07:29:53;92494.03;;;10.53;58.78
3250;BME280;1637;42.020;23.992;2023-04-27T07:32:21;92494.28;;;11.06;56.61
3250;BME280;1637;42.020;23.992;2023-04-27T07:34:48;92495.91;;;12.34;53.46
3250;BME280;1637;42.020;23.992;2023-04-27T07:37:16;92491.31;;;13.13;52.14
3250;BME280;1637;42.020;23.992;2023-04-27T07:39:44;92493.91;;;13.32;50.25
3250;BME280;1637;42.020;23.992;2023-04-27T07:42:12;92492.09;;;12.97;50.34
3250;BME280;1637;42.020;23.992;2023-04-27T07:44:39;92497.34;;;12.39;50.47
3250;BME280;1637;42.020;23.992;2023-04-27T07:47:06;92496.88;;;13.05;51.37
3250;BME280;1637;42.020;23.992;2023-04-27T07:49:33;92491.34;;;12.96;48.87
3250;BME280;1637;42.020;23.992;2023-04-27T07:52:00;92493.66;;;13.11;50.03
3250;BME280;1637;42.020;23.992;2023-04-27T07:54:27;92501.78;;;13.39;50.81
3250;BME280;1637;42.020;23.992;2023-04-27T07:56:54;92506.28;;;13.14;49.62
3250;BME280;1637;42.020;23.992;2023-04-27T07:59:23;92502.31;;;13.76;48.73
3250;BME280;1637;42.020;23.992;2023-04-27T08:01:49;92500.00;;;13.49;48.89
3250;BME280;1637;42.020;23.992;2023-04-27T08:04:16;92505.00;;;13.63;48.03
3250;BME280;1637;42.020;23.992;2023-04-27T08:06:43;92502.19;;;14.08;49.21
3250;BME280;1637;42.020;23.992;2023-04-27T08:09:10;92507.34;;;14.16;47.96
3250;BME280;1637;42.020;23.992;2023-04-27T08:11:37;92498.16;;;13.88;48.88
3250;BME280;1637;42.020;23.992;2023-04-27T08:14:04;92505.00;;;13.63;48.11
3250;BME280;1637;42.020;23.992;2023-04-27T08:16:34;92508.75;;;14.84;49.14
3250;BME280;1637;42.020;23.992;2023-04-27T08:19:01;92498.31;;;14.09;47.39
3250;BME280;1637;42.020;23.992;2023-04-27T08:21:28;92485.16;;;14.12;48.07
3250;BME280;1637;42.020;23.992;2023-04-27T08:23:55;92493.66;;;14.10;48.28
3250;BME280;1637;42.020;23.992;2023-04-27T08:26:21;92497.22;;;14.07;47.38
3250;BME280;1637;42.020;23.992;2023-04-27T08:28:48;92499.59;;;14.05;48.55
3250;BME280;1637;42.020;23.992;2023-04-27T08:31:15;92498.97;;;14.26;47.03
3250;BME280;1637;42.020;23.992;2023-04-27T08:33:43;92497.38;;;13.74;48.97
3250;BME280;1637;42.020;23.992;2023-04-27T08:36:11;92459.91;;;12.64;47.85
3250;BME280;1637;42.020;23.992;2023-04-27T08:38:38;92496.25;;;12.69;50.31
3250;BME280;1637;42.020;23.992;2023-04-27T08:41:05;92502.22;;;12.60;51.96
3250;BME280;1637;42.020;23.992;2023-04-27T08:43:32;92498.50;;;12.54;49.98
3250;BME280;1637;42.020;23.992;2023-04-27T08:46:00;92506.91;;;12.72;49.62
3250;BME280;1637;42.020;23.992;2023-04-27T08:48:27;92497.09;;;12.50;49.53
3250;BME280;1637;42.020;23.992;2023-04-27T08:50:58;92497.97;;;12.27;49.99
3250;BME280;1637;42.020;23.992;2023-04-27T08:53:27;92498.50;;;12.22;51.56
3250;BME280;1637;42.020;23.992;2023-04-27T08:55:55;92414.06;;;12.07;50.12
3250;BME280;1637;42.020;23.992;2023-04-27T08:58:34;92510.00;;;13.03;49.23
3250;BME280;1637;42.020;23.992;2023-04-27T09:01:04;92482.47;;;12.34;49.23
3250;BME280;1637;42.020;23.992;2023-04-27T09:03:32;92514.63;;;12.54;49.98
3250;BME280;1637;42.020;23.992;2023-04-27T09:06:00;92502.13;;;12.48;49.42
3250;BME280;1637;42.020;23.992;2023-04-27T09:08:27;92517.56;;;12.44;49.44
3250;BME280;1637;42.020;23.992;2023-04-27T09:10:54;92511.28;;;12.66;48.58
3250;BME280;1637;42.020;23.992;2023-04-27T09:13:21;92509.19;;;12.58;50.22
3250;BME280;1637;42.020;23.992;2023-04-27T09:15:50;92515.22;;;12.94;49.07
3250;BME280;1637;42.020;23.992;2023-04-27T09:18:17;92506.50;;;12.74;49.33
3250;BME280;1637;42.020;23.992;2023-04-27T09:20:45;92510.84;;;12.52;48.55
3250;BME280;1637;42.020;23.992;2023-04-27T09:23:26;92508.84;;;12.39;48.88
3250;BME280;1637;42.020;23.992;2023-04-27T09:25:53;92512.13;;;12.63;49.43
3250;BME280;1637;42.020;23.992;2023-04-27T09:28:20;92512.13;;;13.70;49.15
3250;BME280;1637;42.020;23.992;2023-04-27T09:30:51;92523.25;;;13.85;46.93
3250;BME280;1637;42.020;23.992;2023-04-27T09:33:23;92511.63;;;13.88;46.86
3250;BME280;1637;42.020;23.992;2023-04-27T09:35:50;92517.38;;;13.73;46.13
3250;BME280;1637;42.020;23.992;2023-04-27T09:38:18;92510.69;;;14.07;45.71
3250;BME280;1637;42.020;23.992;2023-04-27T09:40:47;92504.22;;;14.17;47.00
3250;BME280;1637;42.020;23.992;2023-04-27T09:43:14;92520.84;;;14.28;45.51
3250;BME280;1637;42.020;23.992;2023-04-27T09:45:41;92476.19;;;13.89;45.07
3250;BME280;1637;42.020;23.992;2023-04-27T09:48:09;92524.25;;;14.16;45.68
3250;BME280;1637;42.020;23.992;2023-04-27T09:50:36;92513.28;;;14.36;45.14
3250;BME280;1637;42.020;23.992;2023-04-27T09:53:05;92516.72;;;14.36;43.45
3250;BME280;1637;42.020;23.992;2023-04-27T09:55:37;92511.97;;;14.15;45.36
3250;BME280;1637;42.020;23.992;2023-04-27T10:01:04;92510.91;;;14.13;43.86
3250;BME280;1637;42.020;23.992;2023-04-27T10:03:44;92512.28;;;14.17;44.73
3250;BME280;1637;42.020;23.992;2023-04-27T10:09:19;92520.22;;;14.50;44.29
3250;BME280;1637;42.020;23.992;2023-04-27T10:11:48;92519.13;;;14.47;43.86
3250;BME280;1637;42.020;23.992;2023-04-27T10:14:17;92522.91;;;14.50;43.87
3250;BME280;1637;42.020;23.992;2023-04-27T10:16:45;92517.19;;;14.48;43.42
3250;BME280;1637;42.020;23.992;2023-04-27T10:19:13;92510.97;;;13.96;44.68
3250;BME280;1637;42.020;23.992;2023-04-27T10:21:51;92510.19;;;13.70;45.57
3250;BME280;1637;42.020;23.992;2023-04-27T10:24:18;92499.63;;;13.76;44.10
3250;BME280;1637;42.020;23.992;2023-04-27T10:26:46;92506.75;;;13.83;43.98
3250;BME280;1637;42.020;23.992;2023-04-27T10:29:12;92504.03;;;13.28;46.32
3250;BME280;1637;42.020;23.992;2023-04-27T10:31:44;92505.47;;;13.17;45.52
3250;BME280;1637;42.020;23.992;2023-04-27T10:34:15;92526.28;;;13.29;45.63
3250;BME280;1637;42.020;23.992;2023-04-27T10:36:43;92498.72;;;13.25;44.99
3250;BME280;1637;42.020;23.992;2023-04-27T10:39:14;92527.53;;;13.53;45.38
3250;BME280;1637;42.020;23.992;2023-04-27T10:41:49;92521.75;;;13.55;44.48
3250;BME280;1637;42.020;23.992;2023-04-27T10:44:16;92526.53;;;13.63;44.64
3250;BME280;1637;42.020;23.992;2023-04-27T10:46:52;92517.13;;;13.55;44.65
3250;BME280;1637;42.020;23.992;2023-04-27T10:49:19;92515.56;;;13.70;43.06
3250;BME280;1637;42.020;23.992;2023-04-27T10:51:48;92431.41;;;12.83;45.41
3250;BME280;1637;42.020;23.992;2023-04-27T10:54:15;92511.81;;;13.81;45.09
3250;BME280;1637;42.020;23.992;2023-04-27T10:56:43;92519.13;;;13.80;44.43
3250;BME280;1637;42.020;23.992;2023-04-27T10:59:10;92528.78;;;14.19;45.87
3250;BME280;1637;42.020;23.992;2023-04-27T11:01:38;92512.09;;;14.24;43.08
3250;BME280;1637;42.020;23.992;2023-04-27T11:04:08;92517.81;;;14.39;43.04
3250;BME280;1637;42.020;23.992;2023-04-27T11:06:41;92510.16;;;14.25;42.67
3250;BME280;1637;42.020;23.992;2023-04-27T11:09:08;92513.25;;;13.98;43.39
3250;BME280;1637;42.020;23.992;2023-04-27T11:11:36;92517.59;;;14.21;43.97
3250;BME280;1637;42.020;23.992;2023-04-27T11:14:03;92502.03;;;13.87;45.08
3250;BME280;1637;42.020;23.992;2023-04-27T11:16:31;92517.22;;;13.93;44.01
3250;BME280;1637;42.020;23.992;2023-04-27T11:19:03;92505.00;;;13.76;44.56
3250;BME280;1637;42.020;23.992;2023-04-27T11:21:31;92519.81;;;13.26;46.21
3250;BME280;1637;42.020;23.992;2023-04-27T11:24:02;92514.81;;;13.41;44.83
3250;BME280;1637;42.020;23.992;2023-04-27T11:26:30;92517.00;;;13.46;44.85
3250;BME280;1637;42.020;23.992;2023-04-27T11:28:59;92528.28;;;13.83;44.55
3250;BME280;1637;42.020;23.992;2023-04-27T11:31:26;92531.91;;;13.63;43.91
3250;BME280;1637;42.020;23.992;2023-04-27T11:33:53;92524.91;;;13.37;43.70
3250;BME280;1637;42.020;23.992;2023-04-27T11:36:21;92518.84;;;13.49;44.72
3250;BME280;1637;42.020;23.992;2023-04-27T11:38:50;92535.19;;;13.26;44.23
3250;BME280;1637;42.020;23.992;2023-04-27T11:41:22;92525.84;;;13.59;44.50
3250;BME280;1637;42.020;23.992;2023-04-27T11:44:03;92521.22;;;13.31;44.62
3250;BME280;1637;42.020;23.992;2023-04-27T11:46:32;92525.63;;;13.25;44.30
3250;BME280;1637;42.020;23.992;2023-04-27T11:49:01;92526.75;;;13.40;45.51
3250;BME280;1637;42.020;23.992;2023-04-27T11:51:29;92540.97;;;13.69;43.65
3250;BME280;1637;42.020;23.992;2023-04-27T11:54:02;92522.94;;;13.95;44.98
3250;BME280;1637;42.020;23.992;2023-04-27T11:56:36;92525.41;;;13.90;43.50
3250;BME280;1637;42.020;23.992;2023-04-27T11:59:03;92530.41;;;14.17;43.70
3250;BME280;1637;42.020;23.992;2023-04-27T12:01:30;92530.09;;;14.40;43.06
3250;BME280;1637;42.020;23.992;2023-04-27T12:03:58;92531.41;;;14.86;44.07
3250;BME280;1637;42.020;23.992;2023-04-27T12:06:25;92522.38;;;14.42;42.41
3250;BME280;1637;42.020;23.992;2023-04-27T12:08:53;92527.16;;;14.22;42.64
3250;BME280;1637;42.020;23.992;2023-04-27T12:11:23;92527.38;;;14.02;43.21
3250;BME280;1637;42.020;23.992;2023-04-27T12:13:50;92536.63;;;14.01;44.23
3250;BME280;1637;42.020;23.992;2023-04-27T12:16:18;92524.53;;;13.93;44.26
3250;BME280;1637;42.020;23.992;2023-04-27T12:18:46;92531.19;;;14.30;43.73
3250;BME280;1637;42.020;23.992;2023-04-27T12:21:13;92531.38;;;14.10;43.15
3250;BME280;1637;42.020;23.992;2023-04-27T12:23:40;92518.81;;;13.78;42.99
3250;BME280;1637;42.020;23.992;2023-04-27T12:26:07;92531.75;;;13.96;43.95
3250;BME280;1637;42.020;23.992;2023-04-27T12:28:36;92530.72;;;14.06;44.77
3250;BME280;1637;42.020;23.992;2023-04-27T12:31:03;92533.69;;;13.95;42.89
3250;BME280;1637;42.020;23.992;2023-04-27T12:33:30;92538.16;;;13.73;43.64
3250;BME280;1637;42.020;23.992;2023-04-27T12:35:57;92537.09;;;13.70;43.13
3250;BME280;1637;42.020;23.992;2023-04-27T12:38:24;92532.97;;;13.37;42.83
3250;BME280;1637;42.020;23.992;2023-04-27T12:40:50;92529.63;;;13.33;43.08
3250;BME280;1637;42.020;23.992;2023-04-27T12:43:17;92528.63;;;13.56;42.57
3250;BME280;1637;42.020;23.992;2023-04-27T12:45:45;92531.44;;;13.94;43.14
3250;BME280;1637;42.020;23.992;2023-04-27T12:48:12;92530.06;;;14.02;41.73
3250;BME280;1637;42.020;23.992;2023-04-27T12:50:40;92531.25;;;13.59;42.74
3250;BME280;1637;42.020;23.992;2023-04-27T12:53:07;92539.06;;;13.25;42.16
3250;BME280;1637;42.020;23.992;2023-04-27T12:55:33;92533.66;;;13.41;42.15
3250;BME280;1637;42.020;23.992;2023-04-27T12:58:01;92530.88;;;13.12;41.88
3250;BME280;1637;42.020;23.992;2023-04-27T13:00:29;92532.69;;;13.02;42.89
3250;BME280;1637;42.020;23.992;2023-04-27T13:02:57;92531.41;;;13.23;42.85
3250;BME280;1637;42.020;23.992;2023-04-27T13:05:24;92527.97;;;13.06;43.14
3250;BME280;1637;42.020;23.992;2023-04-27T13:07:51;92533.34;;;13.23;43.51
3250;BME280;1637;42.020;23.992;2023-04-27T13:10:18;92535.13;;;12.97;43.12
3250;BME280;1637;42.020;23.992;2023-04-27T13:12:44;92524.44;;;12.93;42.42
3250;BME280;1637;42.020;23.992;2023-04-27T13:15:11;92525.13;;;12.97;43.58
3250;BME280;1637;42.020;23.992;2023-04-27T13:17:38;92515.72;;;13.05;43.96
3250;BME280;1637;42.020;23.992;2023-04-27T13:20:07;92530.56;;;13.10;42.98
3250;BME280;1637;42.020;23.992;2023-04-27T13:22:34;92532.34;;;13.17;43.61
3250;BME280;1637;42.020;23.992;2023-04-27T13:25:01;92528.16;;;13.16;42.57